createdAt,value
2018-01-05T00:00:01.960Z,77.1
2018-01-05T00:01:01.566Z,77.27
2018-01-05T00:02:00.944Z,77.45
2018-01-05T00:03:01.266Z,77.77
2018-01-05T00:04:01.538Z,77.52
2018-01-05T00:05:00.922Z,77.63
2018-01-05T00:06:01.511Z,77.2
2018-01-05T00:07:00.921Z,76.8
2018-01-05T00:08:01.319Z,76.75
2018-01-05T00:09:01.624Z,77.08
2018-01-05T00:10:01.194Z,76.94
2018-01-05T00:11:00.650Z,76.9
2018-01-05T00:12:00.979Z,77.26
2018-01-05T00:13:01.492Z,76.77
2018-01-05T00:14:00.941Z,77.02
2018-01-05T00:15:01.110Z,76.75
2018-01-05T00:16:01.490Z,76.88
2018-01-05T00:19:06.516Z,74.79
2018-01-05T00:20:00.833Z,74.66
2018-01-05T00:21:01.357Z,74.55
2018-01-05T00:22:00.958Z,74.27
2018-01-05T00:23:01.103Z,74.48
2018-01-05T00:24:01.360Z,73.57
2018-01-05T00:25:01.630Z,73.78
2018-01-05T00:26:00.791Z,73.42
2018-01-05T00:27:01.056Z,73.56
2018-01-05T00:28:01.280Z,73.86
2018-01-05T00:29:01.428Z,73.97
2018-01-05T00:30:00.851Z,74.38
2018-01-05T00:31:01.045Z,74.97
2018-01-05T00:32:01.368Z,75
2018-01-05T00:33:00.900Z,75.25
2018-01-05T00:34:01.248Z,75.2
2018-01-05T00:35:01.434Z,75.24
2018-01-05T00:36:01.372Z,75.6
2018-01-05T00:37:01.700Z,75.21
2018-01-05T00:38:01.055Z,75.44
2018-01-05T00:39:01.332Z,75.43
2018-01-05T00:40:01.673Z,75.61
2018-01-05T00:41:00.975Z,75.74
2018-01-05T00:42:01.813Z,75.73
2018-01-05T00:43:01.378Z,75.22
2018-01-05T00:44:01.965Z,75.02
2018-01-05T00:45:01.426Z,74.84
2018-01-05T00:46:00.972Z,74.59
2018-01-05T00:47:01.327Z,74.8
2018-01-05T00:48:01.699Z,74.55
2018-01-05T00:49:00.997Z,74.76
2018-01-05T00:50:01.587Z,74.79
2018-01-05T00:51:01.093Z,74.74
2018-01-05T00:52:01.323Z,73.93
2018-01-05T00:53:01.708Z,74.33
2018-01-05T00:54:01.306Z,74.36
2018-01-05T00:55:01.807Z,73.98
2018-01-05T00:56:01.092Z,74.55
2018-01-05T00:57:01.325Z,74.06
2018-01-05T00:58:01.538Z,73.97
2018-01-05T00:59:00.778Z,74.14
2018-01-05T01:00:01.393Z,74.03
2018-01-05T01:01:02.051Z,74.65
2018-01-05T01:02:01.497Z,74.43
2018-01-05T01:03:01.891Z,74.94
2018-01-05T01:04:01.194Z,74.21
2018-01-05T01:05:01.658Z,74.07
2018-01-05T01:06:01.931Z,74.01
2018-01-05T01:07:01.353Z,74.51
2018-01-05T01:08:01.675Z,74.22
2018-01-05T01:09:01.949Z,74.08
2018-01-05T01:10:01.106Z,73.34
2018-01-05T01:11:02.010Z,72.99
2018-01-05T01:12:01.273Z,73.34
2018-01-05T01:13:01.618Z,73.9
2018-01-05T01:14:02.887Z,73.25
2018-01-05T01:15:01.331Z,73
2018-01-05T01:16:01.662Z,73.28
2018-01-05T01:17:01.976Z,73.14
2018-01-05T01:18:01.319Z,73.44
2018-01-05T01:19:01.736Z,73.64
2018-01-05T01:20:01.084Z,72.97
2018-01-05T01:21:01.332Z,73.1
2018-01-05T01:22:01.475Z,72.84
2018-01-05T01:23:01.703Z,73.18
2018-01-05T01:24:01.986Z,73.48
2018-01-05T01:25:01.333Z,73.53
2018-01-05T01:26:01.989Z,73.62
2018-01-05T01:27:01.144Z,73.97
2018-01-05T01:28:01.259Z,74.01
2018-01-05T01:29:01.500Z,73.75
2018-01-05T01:30:02.036Z,72.59
2018-01-05T01:31:01.434Z,72.04
2018-01-05T01:32:01.808Z,72.12
2018-01-05T01:33:01.169Z,72.61
2018-01-05T01:34:01.534Z,73.12
2018-01-05T01:35:01.825Z,73.55
2018-01-05T01:36:01.209Z,74.09
2018-01-05T01:37:01.417Z,74.29
2018-01-05T01:38:01.595Z,74.25
2018-01-05T01:39:01.801Z,74.58
2018-01-05T01:41:25.224Z,74.82
2018-01-05T01:42:01.601Z,74.77
2018-01-05T01:43:01.033Z,75.23
2018-01-05T01:44:01.393Z,75.82
2018-01-05T01:45:01.582Z,75.24
2018-01-05T01:46:01.752Z,75.83
2018-01-05T01:47:01.279Z,75.62
2018-01-05T01:48:01.603Z,75.89
2018-01-05T01:49:01.122Z,75.83
2018-01-05T01:50:01.437Z,76.23
2018-01-05T01:51:01.593Z,76.03
2018-01-05T01:52:01.927Z,76.13
2018-01-05T01:53:01.110Z,76.51
2018-01-05T01:54:01.322Z,76.21
2018-01-05T01:55:01.724Z,75.78
2018-01-05T01:56:01.006Z,76.1
2018-01-05T01:57:01.472Z,76.23
2018-01-05T01:58:01.098Z,76.66
2018-01-05T01:59:01.412Z,76.7
2018-01-05T02:00:01.566Z,76.82
2018-01-05T02:01:02.089Z,76.86
2018-01-05T02:02:01.595Z,76.96
2018-01-05T02:03:02.083Z,77.04
2018-01-05T02:04:01.486Z,76.98
2018-01-05T02:05:01.793Z,76.49
2018-01-05T02:06:00.991Z,76.69
2018-01-05T02:07:01.152Z,76.66
2018-01-05T02:08:01.329Z,76.7
2018-01-05T02:09:01.871Z,76.47
2018-01-05T02:10:01.426Z,76.39
2018-01-05T02:11:01.596Z,76.39
2018-01-05T02:12:01.757Z,75.71
2018-01-05T02:13:00.990Z,75.93
2018-01-05T02:14:01.529Z,76.47
2018-01-05T02:15:01.872Z,76.63
2018-01-05T02:16:01.297Z,76.3
2018-01-05T02:17:01.714Z,76.64
2018-01-05T02:18:01.067Z,76.92
2018-01-05T02:19:01.289Z,76.15
2018-01-05T02:20:01.822Z,75.61
2018-01-05T02:21:01.052Z,76.1
2018-01-05T02:22:01.353Z,76.17
2018-01-05T02:23:01.538Z,76.5
2018-01-05T02:24:01.723Z,76.59
2018-01-05T02:25:01.834Z,76.35
2018-01-05T02:26:01.190Z,76.36
2018-01-05T02:27:01.665Z,76.67
2018-01-05T02:28:01.968Z,75.79
2018-01-05T02:29:01.293Z,75.74
2018-01-05T02:30:01.679Z,76.19
2018-01-05T02:31:00.894Z,76.53
2018-01-05T02:32:01.193Z,76.52
2018-01-05T02:33:01.623Z,76.18
2018-01-05T02:34:02.065Z,75.67
2018-01-05T02:35:03.274Z,76.18
2018-01-05T02:36:01.554Z,76.22
2018-01-05T02:37:01.943Z,76.53
2018-01-05T02:38:01.462Z,76.92
2018-01-05T02:39:01.779Z,77.17
2018-01-05T02:40:02.294Z,77.11
2018-01-05T02:41:01.775Z,77.3
2018-01-05T02:42:02.189Z,77.49
2018-01-05T02:43:01.593Z,77.54
2018-01-05T02:44:01.865Z,77.66
2018-01-05T02:45:02.288Z,77.71
2018-01-05T02:46:01.556Z,78
2018-01-05T02:47:01.928Z,78.1
2018-01-05T02:49:24.992Z,78.41
2018-01-05T02:50:01.420Z,78.16
2018-01-05T02:51:01.834Z,78.16
2018-01-05T02:52:01.994Z,77.86
2018-01-05T02:53:01.261Z,78.18
2018-01-05T02:54:01.446Z,78.17
2018-01-05T02:55:01.676Z,78.06
2018-01-05T02:56:01.892Z,78.45
2018-01-05T02:57:01.056Z,78.33
2018-01-05T02:58:01.120Z,78.39
2018-01-05T02:59:01.360Z,78.52
2018-01-05T03:00:01.797Z,78.75
2018-01-05T03:01:02.180Z,78.82
2018-01-05T03:02:01.983Z,78.85
2018-01-05T03:03:01.468Z,78.72
2018-01-05T03:04:01.759Z,79.08
2018-01-05T03:05:01.043Z,79.11
2018-01-05T03:06:01.377Z,79.16
2018-01-05T03:07:01.793Z,79.4
2018-01-05T03:08:00.944Z,79.37
2018-01-05T03:09:01.167Z,79.37
2018-01-05T03:10:01.577Z,79.36
2018-01-05T03:11:00.778Z,79.53
2018-01-05T03:12:02.492Z,79.58
2018-01-05T03:13:00.974Z,79.99
2018-01-05T03:14:01.298Z,79.85
2018-01-05T03:15:01.384Z,79.93
2018-01-05T03:16:01.739Z,79.84
2018-01-05T03:17:00.991Z,79.9
2018-01-05T03:18:01.359Z,79.89
2018-01-05T03:19:03.169Z,80.06
2018-01-05T03:20:01.714Z,80.02
2018-01-05T03:21:01.132Z,80.05
2018-01-05T03:22:01.508Z,79.95
2018-01-05T03:23:01.850Z,80
2018-01-05T03:24:01.502Z,79.7
2018-01-05T03:25:00.800Z,79.84
2018-01-05T03:26:01.079Z,79.92
2018-01-05T03:27:01.418Z,79.9
2018-01-05T03:28:01.727Z,79.74
2018-01-05T03:29:01.012Z,79.71
2018-01-05T03:30:01.645Z,79.76
2018-01-05T03:31:00.818Z,80.04
2018-01-05T03:32:01.132Z,79.67
2018-01-05T03:33:01.265Z,79.5
2018-01-05T03:34:00.634Z,79.25
2018-01-05T03:35:01.092Z,78.95
2018-01-05T03:36:01.273Z,79.11
2018-01-05T03:37:00.478Z,79.25
2018-01-05T03:38:00.674Z,78.8
2018-01-05T03:39:01.012Z,79.31
2018-01-05T03:40:01.372Z,78.73
2018-01-05T03:41:00.620Z,78.48
2018-01-05T03:42:01.030Z,78.8
2018-01-05T03:43:01.465Z,78.86
2018-01-05T03:44:00.751Z,78.98
2018-01-05T03:45:01.054Z,79.08
2018-01-05T03:46:00.572Z,79.29
2018-01-05T03:47:00.935Z,79.3
2018-01-05T03:48:01.333Z,79.22
2018-01-05T03:49:00.568Z,78.95
2018-01-05T03:50:00.901Z,78.8
2018-01-05T03:51:01.487Z,78.62
2018-01-05T03:52:00.854Z,78.74
2018-01-05T03:53:01.266Z,78.49
2018-01-05T03:54:00.623Z,78.4
2018-01-05T03:55:00.709Z,78.2
2018-01-05T03:56:00.924Z,78.19
2018-01-05T03:57:01.378Z,78.12
2018-01-05T03:58:00.346Z,77.44
2018-01-05T03:59:00.547Z,78
2018-01-05T04:00:00.920Z,78.13
2018-01-05T04:01:01.119Z,78.14
2018-01-05T04:02:01.363Z,78.14
2018-01-05T04:03:00.673Z,78.09
2018-01-05T04:04:01.144Z,78.35
2018-01-05T04:05:01.602Z,78.25
2018-01-05T04:06:02.371Z,78.54
2018-01-05T04:07:01.819Z,78.1
2018-01-05T04:08:01.057Z,77.86
2018-01-05T04:09:01.256Z,77.9
2018-01-05T04:10:01.575Z,78.07
2018-01-05T04:11:01.843Z,77.73
2018-01-05T04:12:01.209Z,77.68
2018-01-05T04:13:01.397Z,78.13
2018-01-05T04:14:01.496Z,77.92
2018-01-05T04:15:01.618Z,77.86
2018-01-05T04:16:01.819Z,77.89
2018-01-05T04:17:00.966Z,77.38
2018-01-05T04:18:01.378Z,77.05
2018-01-05T04:19:01.634Z,76.28
2018-01-05T04:20:02.396Z,77
2018-01-05T04:21:01.544Z,76.97
2018-01-05T04:22:01.729Z,77.58
2018-01-05T04:23:02.093Z,76.88
2018-01-05T04:24:01.442Z,77.35
2018-01-05T04:25:01.697Z,77.17
2018-01-05T04:26:02.004Z,77.21
2018-01-05T04:27:01.175Z,77.03
2018-01-05T04:28:01.466Z,76.61
2018-01-05T04:29:02.453Z,77.23
2018-01-05T04:30:01.695Z,76.95
2018-01-05T04:31:01.956Z,77.03
2018-01-05T04:32:01.240Z,76.55
2018-01-05T04:33:01.550Z,76.97
2018-01-05T04:34:01.955Z,77.11
2018-01-05T04:35:01.325Z,77.54
2018-01-05T04:36:01.518Z,77.82
2018-01-05T04:37:01.728Z,77.67
2018-01-05T04:38:01.095Z,77.61
2018-01-05T04:39:01.542Z,77.51
2018-01-05T04:40:01.034Z,77.72
2018-01-05T04:41:01.342Z,77.61
2018-01-05T04:42:01.599Z,77.29
2018-01-05T04:43:01.709Z,77.34
2018-01-05T04:44:00.862Z,76.72
2018-01-05T04:45:01.123Z,77.48
2018-01-05T04:46:01.575Z,77.51
2018-01-05T04:47:00.980Z,77.28
2018-01-05T04:48:01.272Z,77.43
2018-01-05T04:49:01.782Z,77.52
2018-01-05T04:50:01.247Z,77.44
2018-01-05T04:51:00.768Z,77.45
2018-01-05T04:52:00.925Z,77.27
2018-01-05T04:53:01.503Z,76.88
2018-01-05T04:54:01.777Z,76.79
2018-01-05T04:55:01.120Z,76.83
2018-01-05T04:56:02.545Z,77.1
2018-01-05T04:57:03.026Z,77.13
2018-01-05T04:58:01.466Z,77.06
2018-01-05T04:59:01.711Z,76.94
2018-01-05T05:00:00.955Z,77
2018-01-05T05:01:01.177Z,76.98
2018-01-05T05:02:01.517Z,76.7
2018-01-05T05:03:01.764Z,76.42
2018-01-05T05:04:01.000Z,76.76
2018-01-05T05:05:01.514Z,76.64
2018-01-05T05:06:00.781Z,76.49
2018-01-05T05:07:01.192Z,77.02
2018-01-05T05:08:00.482Z,76.64
2018-01-05T05:09:00.585Z,76.55
2018-01-05T05:10:00.616Z,76.87
2018-01-05T05:11:00.565Z,76.63
2018-01-05T05:12:00.505Z,76.43
2018-01-05T05:13:00.900Z,76.46
2018-01-05T05:14:01.107Z,76.82
2018-01-05T05:15:02.355Z,76.86
2018-01-05T05:16:00.591Z,76.66
2018-01-05T05:17:00.686Z,76.74
2018-01-05T05:18:01.054Z,76.29
2018-01-05T05:19:00.311Z,76.83
2018-01-05T05:20:00.524Z,76.74
2018-01-05T05:21:00.867Z,76.64
2018-01-05T05:22:01.198Z,75.85
2018-01-05T05:23:00.742Z,76.19
2018-01-05T05:24:00.938Z,76.2
2018-01-05T05:25:01.112Z,76.06
2018-01-05T05:26:00.240Z,76.56
2018-01-05T05:27:00.718Z,76.31
2018-01-05T05:28:01.134Z,76.69
2018-01-05T05:29:00.509Z,76.97
2018-01-05T05:30:00.857Z,76.53
2018-01-05T05:31:01.148Z,76.42
2018-01-05T05:32:00.459Z,76.73
2018-01-05T05:33:00.748Z,76.51
2018-01-05T05:34:01.329Z,76.66
2018-01-05T05:35:00.498Z,76.71
2018-01-05T05:36:00.770Z,76.74
2018-01-05T05:37:00.827Z,76.99
2018-01-05T05:38:00.909Z,76.93
2018-01-05T05:39:01.044Z,76.83
2018-01-05T05:40:01.337Z,76.65
2018-01-05T05:41:01.766Z,77.03
2018-01-05T05:42:01.016Z,77.31
2018-01-05T05:43:01.304Z,77.26
2018-01-05T05:44:01.552Z,76.31
2018-01-05T05:45:00.807Z,76.67
2018-01-05T05:46:00.862Z,76.67
2018-01-05T05:47:00.922Z,76.86
2018-01-05T05:48:01.150Z,77.07
2018-01-05T05:49:01.488Z,77.4
2018-01-05T05:50:02.046Z,76.91
2018-01-05T05:51:01.421Z,77.07
2018-01-05T05:52:01.571Z,77.15
2018-01-05T05:53:00.708Z,77.49
2018-01-05T05:54:00.852Z,76.98
2018-01-05T05:55:00.974Z,76.39
2018-01-05T05:56:01.502Z,76.38
2018-01-05T05:57:00.734Z,76.81
2018-01-05T05:58:00.896Z,76.97
2018-01-05T05:59:01.374Z,76.52
2018-01-05T06:00:01.608Z,76.55
2018-01-05T06:01:01.788Z,76.96
2018-01-05T06:02:01.129Z,77.13
2018-01-05T06:03:01.520Z,77.66
2018-01-05T06:04:00.747Z,77.39
2018-01-05T06:05:00.931Z,77.46
2018-01-05T06:06:01.239Z,77.22
2018-01-05T06:07:01.556Z,76.88
2018-01-05T06:08:01.835Z,77.13
2018-01-05T06:09:02.268Z,77.02
2018-01-05T06:10:01.579Z,77.23
2018-01-05T06:11:01.701Z,76.81
2018-01-05T06:12:01.913Z,76.76
2018-01-05T06:13:02.182Z,77.44
2018-01-05T06:14:01.484Z,77.07
2018-01-05T06:15:01.752Z,76.65
2018-01-05T06:16:01.876Z,77.29
2018-01-05T06:17:02.181Z,77.15
2018-01-05T06:18:01.678Z,77.13
2018-01-05T06:19:02.061Z,76.79
2018-01-05T06:20:01.428Z,77.09
2018-01-05T06:21:01.670Z,77.48
2018-01-05T06:22:01.932Z,77.32
2018-01-05T06:23:02.118Z,77.88
2018-01-05T06:24:01.227Z,77.78
2018-01-05T06:25:01.508Z,77.81
2018-01-05T06:26:01.834Z,77.74
2018-01-05T06:27:02.119Z,77.78
2018-01-05T06:28:01.586Z,77.81
2018-01-05T06:29:02.288Z,78.05
2018-01-05T06:30:01.706Z,78.02
2018-01-05T06:32:03.599Z,77.79
2018-01-05T06:33:02.098Z,78.11
2018-01-05T06:34:01.476Z,78.48
2018-01-05T06:35:01.876Z,78.63
2018-01-05T06:36:02.275Z,79
2018-01-05T06:37:01.191Z,79.03
2018-01-05T06:38:00.458Z,79.06
2018-01-05T06:39:00.696Z,79.1
2018-01-05T06:40:01.180Z,79.36
2018-01-05T06:41:00.334Z,79.25
2018-01-05T06:42:00.447Z,79.34
2018-01-05T06:43:00.747Z,79.4
2018-01-05T06:44:00.991Z,79.5
2018-01-05T06:45:01.330Z,79.55
2018-01-05T06:46:00.637Z,79.59
2018-01-05T06:47:00.773Z,79.94
2018-01-05T06:48:01.076Z,80.16
2018-01-05T06:49:00.298Z,80.09
2018-01-05T06:50:00.620Z,79.96
2018-01-05T06:51:01.268Z,80.05
2018-01-05T06:52:00.528Z,80.47
2018-01-05T06:53:00.870Z,80.19
2018-01-05T06:54:01.192Z,80.29
2018-01-05T06:55:00.697Z,80.36
2018-01-05T06:56:00.940Z,80.23
2018-01-05T06:57:01.204Z,80.37
2018-01-05T06:58:00.535Z,80.88
2018-01-05T06:59:00.872Z,80.46
2018-01-05T07:00:01.353Z,80.27
2018-01-05T07:01:00.959Z,80.42
2018-01-05T07:02:02.249Z,80.49
2018-01-05T07:03:00.543Z,80.58
2018-01-05T07:04:01.017Z,80.61
2018-01-05T07:05:02.362Z,80.57
2018-01-05T07:06:00.803Z,80.85
2018-01-05T07:07:01.069Z,80.8
2018-01-05T07:08:01.636Z,80.82
2018-01-05T07:09:02.565Z,80.79
2018-01-05T07:10:01.957Z,80.94
2018-01-05T07:11:01.484Z,80.99
2018-01-05T07:12:02.799Z,81.06
2018-01-05T07:13:01.110Z,81.3
2018-01-05T07:14:01.347Z,81.29
2018-01-05T07:15:01.735Z,81.23
2018-01-05T07:16:02.141Z,81.33
2018-01-05T07:17:01.608Z,81.45
2018-01-05T07:18:02.095Z,81.32
2018-01-05T07:19:01.648Z,81.45
2018-01-05T07:20:02.063Z,81.41
2018-01-05T07:21:01.472Z,81.45
2018-01-05T07:22:02.474Z,81.41
2018-01-05T07:23:02.143Z,81.49
2018-01-05T07:24:01.572Z,81.45
2018-01-05T07:25:02.039Z,81.48
2018-01-05T07:26:01.342Z,81.5
2018-01-05T07:27:01.785Z,81.65
2018-01-05T07:28:02.080Z,81.75
2018-01-05T07:29:01.422Z,81.66
2018-01-05T07:30:01.919Z,81.7
2018-01-05T07:31:01.144Z,81.81
2018-01-05T07:32:01.503Z,81.69
2018-01-05T07:33:03.360Z,81.69
2018-01-05T07:34:01.984Z,81.67
2018-01-05T07:35:01.325Z,81.67
2018-01-05T07:36:03.960Z,81.6
2018-01-05T07:37:01.245Z,81.68
2018-01-05T07:38:01.521Z,81.69
2018-01-05T07:39:01.899Z,81.94
2018-01-05T07:40:02.505Z,81.87
2018-01-05T07:41:01.930Z,81.83
2018-01-05T07:42:02.037Z,82.02
2018-01-05T07:43:02.223Z,81.98
2018-01-05T07:44:01.407Z,82.16
2018-01-05T07:45:02.035Z,82.1
2018-01-05T07:46:01.522Z,82.21
2018-01-05T07:47:02.353Z,82.04
2018-01-05T07:48:01.589Z,82.03
2018-01-05T07:49:01.621Z,82.12
2018-01-05T07:50:01.884Z,82.14
2018-01-05T07:51:02.272Z,82.34
2018-01-05T07:52:01.672Z,82.32
2018-01-05T07:53:02.009Z,82.08
2018-01-05T07:59:05.788Z,82.01
2018-01-05T08:00:02.213Z,81.94
2018-01-05T08:01:01.511Z,81.77
2018-01-05T08:02:01.702Z,81.76
2018-01-05T08:03:02.015Z,81.93
2018-01-05T08:04:01.664Z,81.98
2018-01-05T08:05:02.168Z,81.89
2018-01-05T08:06:01.534Z,81.93
2018-01-05T08:07:01.872Z,81.74
2018-01-05T08:08:01.553Z,81.63
2018-01-05T08:09:01.072Z,81.7
2018-01-05T08:10:01.617Z,81.76
2018-01-05T08:11:01.259Z,81.72
2018-01-05T08:12:01.487Z,82.16
2018-01-05T08:13:01.897Z,82.04
2018-01-05T08:14:01.274Z,82.06
2018-01-05T08:15:01.581Z,81.89
2018-01-05T08:16:00.968Z,81.78
2018-01-05T08:17:01.483Z,81.55
2018-01-05T08:18:02.358Z,81.5
2018-01-05T08:19:01.542Z,81.54
2018-01-05T08:20:01.732Z,81.46
2018-01-05T08:21:01.058Z,81.41
2018-01-05T08:22:01.475Z,81.31
2018-01-05T08:23:01.833Z,81.5
2018-01-05T08:24:01.203Z,81.41
2018-01-05T08:25:01.629Z,81.39
2018-01-05T08:26:01.786Z,81.48
2018-01-05T08:27:01.334Z,81.6
2018-01-05T08:28:01.493Z,81.45
2018-01-05T08:29:01.793Z,81.49
2018-01-05T08:30:01.282Z,81.51
2018-01-05T08:31:01.623Z,81.4
2018-01-05T08:32:00.997Z,81.36
2018-01-05T08:33:01.172Z,81.39
2018-01-05T08:34:01.627Z,81.02
2018-01-05T08:35:01.080Z,80.94
2018-01-05T08:36:01.393Z,81.04
2018-01-05T08:37:01.720Z,80.97
2018-01-05T08:38:01.450Z,81.02
2018-01-05T08:39:01.729Z,81.03
2018-01-05T08:40:02.055Z,81.25
2018-01-05T08:41:01.561Z,81.18
2018-01-05T08:42:02.375Z,81.07
2018-01-05T08:43:01.880Z,80.92
2018-01-05T08:44:02.106Z,80.91
2018-01-05T08:45:01.271Z,80.79
2018-01-05T08:46:01.460Z,80.75
2018-01-05T08:47:01.711Z,80.85
2018-01-05T08:48:02.101Z,80.98
2018-01-05T08:49:01.514Z,80.82
2018-01-05T08:50:01.898Z,80.57
2018-01-05T08:51:02.199Z,80.64
2018-01-05T08:52:01.544Z,80.55
2018-01-05T08:53:01.975Z,80.59
2018-01-05T08:54:01.350Z,80.57
2018-01-05T08:55:01.556Z,80.46
2018-01-05T08:56:01.792Z,80.41
2018-01-05T08:57:02.185Z,80.34
2018-01-05T08:58:01.634Z,80.55
2018-01-05T08:59:01.993Z,80.55
2018-01-05T09:00:01.396Z,80.55
2018-01-05T09:01:01.743Z,80.67
2018-01-05T09:02:02.094Z,80.72
2018-01-05T09:03:01.356Z,80.82
2018-01-05T09:04:01.844Z,80.81
2018-01-05T09:05:02.386Z,80.87
2018-01-05T09:06:01.814Z,80.64
2018-01-05T09:07:02.419Z,80.7
2018-01-05T09:08:01.975Z,80.77
2018-01-05T09:09:01.368Z,80.81
2018-01-05T09:10:01.936Z,80.81
2018-01-05T09:11:01.576Z,80.83
2018-01-05T09:12:00.905Z,80.72
2018-01-05T09:13:01.002Z,80.17
2018-01-05T09:14:01.186Z,79.98
2018-01-05T09:15:01.750Z,79.69
2018-01-05T09:16:01.066Z,79.68
2018-01-05T09:17:01.397Z,79.38
2018-01-05T09:18:01.903Z,79.45
2018-01-05T09:19:01.065Z,79
2018-01-05T09:20:01.372Z,79.28
2018-01-05T09:21:01.950Z,79.53
2018-01-05T09:22:01.411Z,79.58
2018-01-05T09:23:01.816Z,79.34
2018-01-05T09:24:01.004Z,79.37
2018-01-05T09:25:01.263Z,79.13
2018-01-05T09:26:01.486Z,79.05
2018-01-05T09:27:01.907Z,79.13
2018-01-05T09:28:01.340Z,79.13
2018-01-05T09:29:01.688Z,79.14
2018-01-05T09:30:01.069Z,79.18
2018-01-05T09:31:01.582Z,79.13
2018-01-05T09:32:01.017Z,79.04
2018-01-05T09:33:01.617Z,79.15
2018-01-05T09:34:01.889Z,79.24
2018-01-05T09:35:01.274Z,79.03
2018-01-05T09:36:01.454Z,79
2018-01-05T09:37:01.697Z,78.78
2018-01-05T09:38:01.160Z,78.97
2018-01-05T09:39:01.812Z,79.05
2018-01-05T09:40:01.255Z,79
2018-01-05T09:41:01.421Z,78.93
2018-01-05T09:42:00.675Z,78.9
2018-01-05T09:43:01.044Z,78.67
2018-01-05T09:44:00.470Z,78.51
2018-01-05T09:45:00.942Z,78.72
2018-01-05T09:46:01.464Z,79.01
2018-01-05T09:47:00.710Z,78.92
2018-01-05T09:48:01.074Z,78.9
2018-01-05T09:49:01.326Z,78.89
2018-01-05T09:50:00.925Z,78.87
2018-01-05T09:51:01.052Z,78.97
2018-01-05T09:52:01.135Z,78.97
2018-01-05T09:53:01.215Z,78.51
2018-01-05T09:54:01.493Z,78.68
2018-01-05T09:55:01.129Z,78.52
2018-01-05T09:56:01.492Z,78.56
2018-01-05T09:57:00.520Z,78.7
2018-01-05T09:58:00.862Z,78.78
2018-01-05T09:59:01.975Z,78.55
2018-01-05T10:00:01.340Z,78.25
2018-01-05T10:01:01.603Z,78.03
2018-01-05T10:02:00.902Z,78.4
2018-01-05T10:03:01.180Z,78.39
2018-01-05T10:04:01.418Z,78.55
2018-01-05T10:05:01.538Z,78.19
2018-01-05T10:06:01.396Z,78.36
2018-01-05T10:07:00.666Z,78.2
2018-01-05T10:08:00.840Z,77.99
2018-01-05T10:09:01.010Z,78.07
2018-01-05T10:10:01.487Z,78.32
2018-01-05T10:11:02.027Z,78.21
2018-01-05T10:12:02.293Z,78.17
2018-01-05T10:13:01.642Z,78.11
2018-01-05T10:14:01.910Z,78.11
2018-01-05T10:15:02.125Z,78.01
2018-01-05T10:16:01.196Z,78.25
2018-01-05T10:17:01.428Z,78.02
2018-01-05T10:18:01.835Z,78.25
2018-01-05T10:19:02.115Z,78.45
2018-01-05T10:20:01.558Z,78.08
2018-01-05T10:21:01.680Z,77.94
2018-01-05T10:22:01.917Z,77.71
2018-01-05T10:23:02.189Z,77.88
2018-01-05T10:24:01.454Z,78.05
2018-01-05T10:25:05.369Z,77.71
2018-01-05T10:26:01.807Z,77.83
2018-01-05T10:27:02.498Z,77.55
2018-01-05T10:28:02.062Z,77.42
2018-01-05T10:29:01.330Z,77.71
2018-01-05T10:30:01.786Z,77.58
2018-01-05T10:31:02.281Z,77.47
2018-01-05T10:32:01.872Z,77.45
2018-01-05T10:33:02.310Z,77.61
2018-01-05T10:34:01.567Z,77.97
2018-01-05T10:35:01.791Z,77.92
2018-01-05T10:36:02.211Z,77.6
2018-01-05T10:37:01.755Z,77.27
2018-01-05T10:38:02.304Z,77.65
2018-01-05T10:39:01.819Z,77.71
2018-01-05T10:40:02.293Z,77.73
2018-01-05T10:41:01.773Z,77.92
2018-01-05T10:42:02.131Z,78
2018-01-05T10:43:01.395Z,77.54
2018-01-05T10:44:01.967Z,77.65
2018-01-05T10:45:01.554Z,77.68
2018-01-05T10:46:01.969Z,77.85
2018-01-05T10:47:01.226Z,77.87
2018-01-05T10:48:01.579Z,78.03
2018-01-05T10:49:01.752Z,77.72
2018-01-05T10:50:01.430Z,77.6
2018-01-05T10:51:01.832Z,77.69
2018-01-05T10:52:01.356Z,77.81
2018-01-05T10:53:01.812Z,77.99
2018-01-05T10:54:02.082Z,77.63
2018-01-05T10:55:01.581Z,77.9
2018-01-05T10:56:01.930Z,78.08
2018-01-05T10:57:01.107Z,78.41
2018-01-05T10:58:01.699Z,78.53
2018-01-05T10:59:07.693Z,77.82
2018-01-05T11:00:01.404Z,78.17
2018-01-05T11:01:01.710Z,78.24
2018-01-05T11:02:01.934Z,78.33
2018-01-05T11:03:01.365Z,78.39
2018-01-05T11:04:01.691Z,78.36
2018-01-05T11:05:02.060Z,78.52
2018-01-05T11:06:01.511Z,78.69
2018-01-05T11:07:01.906Z,78.7
2018-01-05T11:08:01.296Z,79.04
2018-01-05T11:09:01.649Z,79.31
2018-01-05T11:10:02.092Z,79.84
2018-01-05T11:11:01.817Z,80
2018-01-05T11:12:01.338Z,80.23
2018-01-05T11:13:00.545Z,80.36
2018-01-05T11:14:00.801Z,80.7
2018-01-05T11:15:01.165Z,80.75
2018-01-05T11:16:01.888Z,80.6
2018-01-05T11:17:01.451Z,80.8
2018-01-05T11:18:00.767Z,79.99
2018-01-05T11:19:01.040Z,80.66
2018-01-05T11:20:01.404Z,80.2
2018-01-05T11:21:00.656Z,80.35
2018-01-05T11:22:02.123Z,80.2
2018-01-05T11:23:01.899Z,80.33
2018-01-05T11:24:01.304Z,80.33
2018-01-05T11:25:03.674Z,80.51
2018-01-05T11:26:08.793Z,80.46
2018-01-05T11:27:01.013Z,80.67
2018-01-05T11:28:01.702Z,80.86
2018-01-05T11:29:00.949Z,79.27
2018-01-05T11:30:01.470Z,79.83
2018-01-05T11:31:01.051Z,79.55
2018-01-05T11:32:01.282Z,79.67
2018-01-05T11:33:00.907Z,79.92
2018-01-05T11:34:01.387Z,79.25
2018-01-05T11:35:00.754Z,79.78
2018-01-05T11:36:00.992Z,79.71
2018-01-05T11:37:01.244Z,79.61
2018-01-05T11:38:02.461Z,78.73
2018-01-05T11:39:00.713Z,79.35
2018-01-05T11:40:01.039Z,79.32
2018-01-05T11:41:01.474Z,79.66
2018-01-05T11:42:00.764Z,79.47
2018-01-05T11:43:01.218Z,79.57
2018-01-05T11:44:01.686Z,79.84
2018-01-05T11:45:01.218Z,79.89
2018-01-05T11:46:01.517Z,80.03
2018-01-05T11:47:01.802Z,80.27
2018-01-05T11:48:01.354Z,80.52
2018-01-05T11:49:01.758Z,80.83
2018-01-05T11:50:01.099Z,80.89
2018-01-05T11:51:01.593Z,80.63
2018-01-05T11:52:01.081Z,81
2018-01-05T11:53:01.648Z,81.61
2018-01-05T11:54:01.272Z,81.45
2018-01-05T11:55:04.439Z,81.95
2018-01-05T11:56:01.856Z,82.03
2018-01-05T11:57:01.338Z,82.13
2018-01-05T11:58:01.731Z,82.15
2018-01-05T11:59:01.175Z,82.41
2018-01-05T12:00:01.691Z,82.52
2018-01-05T12:01:01.305Z,82.58
2018-01-05T12:02:01.869Z,82.76
2018-01-05T12:03:01.080Z,82.79
2018-01-05T12:04:01.830Z,82.91
2018-01-05T12:05:01.479Z,83.04
2018-01-05T12:06:01.993Z,83.14
2018-01-05T12:07:01.538Z,83.49
2018-01-05T12:08:01.018Z,83.26
2018-01-05T12:09:01.314Z,83.8
2018-01-05T12:10:01.675Z,83.94
2018-01-05T12:11:01.067Z,83.79
2018-01-05T12:12:01.536Z,83.97
2018-01-05T12:13:00.891Z,83.91
2018-01-05T12:14:01.345Z,83.81
2018-01-05T12:15:01.194Z,83.96
2018-01-05T12:16:00.810Z,84.29
2018-01-05T12:17:01.041Z,84.08
2018-01-05T12:18:01.513Z,84.88
2018-01-05T12:19:00.917Z,84.62
2018-01-05T12:20:01.521Z,84.77
2018-01-05T12:21:00.709Z,85.36
2018-01-05T12:22:01.242Z,84.8
2018-01-05T12:23:00.738Z,84.8
2018-01-05T12:24:01.578Z,84.83
2018-01-05T12:25:02.010Z,85.38
2018-01-05T12:26:03.233Z,85.11
2018-01-05T12:27:00.838Z,86.16
2018-01-05T12:28:00.774Z,85.66
2018-01-05T12:29:01.077Z,85.84
2018-01-05T12:30:01.724Z,85.88
2018-01-05T12:31:02.298Z,85.5
2018-01-05T12:32:00.590Z,85.54
2018-01-05T12:33:02.975Z,85.54
2018-01-05T12:34:01.383Z,85.46
2018-01-05T12:35:00.762Z,85.2
2018-01-05T12:36:01.076Z,85.21
2018-01-05T12:37:01.375Z,85.19
2018-01-05T12:38:00.859Z,85.37
2018-01-05T12:39:01.157Z,85.44
2018-01-05T12:40:00.714Z,85.57
2018-01-05T12:41:01.224Z,86.4
2018-01-05T12:42:00.679Z,85.97
2018-01-05T12:43:01.195Z,86.05
2018-01-05T12:44:01.947Z,86.53
2018-01-05T12:45:01.823Z,86.69
2018-01-05T12:46:01.142Z,86.3
2018-01-05T12:47:01.397Z,87.03
2018-01-05T12:48:01.912Z,86.74
2018-01-05T12:49:01.289Z,86.99
2018-01-05T12:50:01.461Z,86.81
2018-01-05T12:51:01.673Z,87.53
2018-01-05T12:52:02.833Z,86.82
2018-01-05T12:53:01.178Z,87.14
2018-01-05T12:54:01.580Z,87.14
2018-01-05T12:55:02.129Z,87.49
2018-01-05T12:56:01.397Z,87.31
2018-01-05T12:57:01.575Z,87.56
2018-01-05T12:58:01.867Z,87.15
2018-01-05T12:59:01.355Z,87.04
2018-01-05T13:00:01.970Z,88.05
2018-01-05T13:01:01.333Z,87.73
2018-01-05T13:02:01.740Z,88.02
2018-01-05T13:03:01.203Z,88.51
2018-01-05T13:04:01.578Z,88.85
2018-01-05T13:05:01.996Z,88.45
2018-01-05T13:06:01.275Z,88.37